sensor_id;sensor_type;location;lat;lon;timestamp;P1;durP1;ratioP1;P2;durP2;ratioP2
56541;SDS011;42438;53.174;6.730;2023-12-20T00:01:06;7.78;;;1.77;;
56541;SDS011;42438;53.174;6.730;2023-12-20T00:03:37;10.75;;;2.58;;
56541;SDS011;42438;53.174;6.730;2023-12-20T00:06:07;7.55;;;2.05;;
56541;SDS011;42438;53.174;6.730;2023-12-20T00:08:38;10.45;;;2.08;;
56541;SDS011;42438;53.174;6.730;2023-12-20T00:11:09;8.85;;;1.95;;
56541;SDS011;42438;53.174;6.730;2023-12-20T00:13:40;8.07;;;2.28;;
56541;SDS011;42438;53.174;6.730;2023-12-20T00:16:10;4.70;;;1.80;;
56541;SDS011;42438;53.174;6.730;2023-12-20T00:18:41;7.45;;;1.70;;
56541;SDS011;42438;53.174;6.730;2023-12-20T00:21:11;11.30;;;1.77;;
56541;SDS011;42438;53.174;6.730;2023-12-20T00:23:42;8.77;;;1.80;;
56541;SDS011;42438;53.174;6.730;2023-12-20T00:26:13;11.65;;;2.22;;
56541;SDS011;42438;53.174;6.730;2023-12-20T00:28:43;10.73;;;2.40;;
56541;SDS011;42438;53.174;6.730;2023-12-20T00:31:14;11.30;;;1.92;;
56541;SDS011;42438;53.174;6.730;2023-12-20T00:33:45;9.20;;;3.10;;
56541;SDS011;42438;53.174;6.730;2023-12-20T00:36:17;9.85;;;2.03;;
56541;SDS011;42438;53.174;6.730;2023-12-20T00:38:47;9.82;;;1.98;;
56541;SDS011;42438;53.174;6.730;2023-12-20T00:41:18;13.50;;;2.50;;
56541;SDS011;42438;53.174;6.730;2023-12-20T00:43:49;11.55;;;2.10;;
56541;SDS011;42438;53.174;6.730;2023-12-20T00:46:19;12.77;;;1.90;;
56541;SDS011;42438;53.174;6.730;2023-12-20T00:48:50;6.53;;;1.90;;
56541;SDS011;42438;53.174;6.730;2023-12-20T00:51:20;12.50;;;2.70;;
56541;SDS011;42438;53.174;6.730;2023-12-20T00:53:52;8.45;;;1.90;;
56541;SDS011;42438;53.174;6.730;2023-12-20T00:56:24;16.27;;;2.88;;
56541;SDS011;42438;53.174;6.730;2023-12-20T00:58:55;8.20;;;2.10;;
56541;SDS011;42438;53.174;6.730;2023-12-20T01:01:25;8.05;;;2.10;;
56541;SDS011;42438;53.174;6.730;2023-12-20T01:03:56;7.63;;;2.00;;
56541;SDS011;42438;53.174;6.730;2023-12-20T01:06:27;8.70;;;2.28;;
56541;SDS011;42438;53.174;6.730;2023-12-20T01:08:58;9.77;;;2.00;;
56541;SDS011;42438;53.174;6.730;2023-12-20T01:11:28;10.20;;;2.53;;
56541;SDS011;42438;53.174;6.730;2023-12-20T01:13:59;7.82;;;2.05;;
56541;SDS011;42438;53.174;6.730;2023-12-20T01:16:30;16.00;;;2.08;;
56541;SDS011;42438;53.174;6.730;2023-12-20T01:19:00;11.45;;;2.38;;
56541;SDS011;42438;53.174;6.730;2023-12-20T01:21:31;8.30;;;2.33;;
56541;SDS011;42438;53.174;6.730;2023-12-20T01:24:01;8.05;;;2.85;;
56541;SDS011;42438;53.174;6.730;2023-12-20T01:26:32;16.15;;;2.58;;
56541;SDS011;42438;53.174;6.730;2023-12-20T01:29:03;6.90;;;2.00;;
56541;SDS011;42438;53.174;6.730;2023-12-20T01:31:33;13.00;;;2.72;;
56541;SDS011;42438;53.174;6.730;2023-12-20T01:34:04;11.25;;;2.38;;
56541;SDS011;42438;53.174;6.730;2023-12-20T01:36:35;6.07;;;1.83;;
56541;SDS011;42438;53.174;6.730;2023-12-20T01:39:05;12.50;;;2.00;;
56541;SDS011;42438;53.174;6.730;2023-12-20T01:41:36;11.63;;;2.33;;
56541;SDS011;42438;53.174;6.730;2023-12-20T01:44:07;11.95;;;2.75;;
56541;SDS011;42438;53.174;6.730;2023-12-20T01:46:37;12.65;;;2.55;;
56541;SDS011;42438;53.174;6.730;2023-12-20T01:49:08;12.98;;;3.17;;
56541;SDS011;42438;53.174;6.730;2023-12-20T01:51:39;15.23;;;2.80;;
56541;SDS011;42438;53.174;6.730;2023-12-20T01:54:10;14.93;;;3.25;;
56541;SDS011;42438;53.174;6.730;2023-12-20T01:56:41;14.00;;;2.55;;
56541;SDS011;42438;53.174;6.730;2023-12-20T01:59:12;9.05;;;2.47;;
56541;SDS011;42438;53.174;6.730;2023-12-20T02:01:43;10.38;;;2.47;;
56541;SDS011;42438;53.174;6.730;2023-12-20T02:04:14;8.70;;;2.70;;
56541;SDS011;42438;53.174;6.730;2023-12-20T02:06:46;9.52;;;2.22;;
56541;SDS011;42438;53.174;6.730;2023-12-20T02:09:18;8.93;;;2.33;;
56541;SDS011;42438;53.174;6.730;2023-12-20T02:11:49;8.15;;;1.92;;
56541;SDS011;42438;53.174;6.730;2023-12-20T02:14:19;8.38;;;1.92;;
56541;SDS011;42438;53.174;6.730;2023-12-20T02:16:50;9.30;;;2.63;;
56541;SDS011;42438;53.174;6.730;2023-12-20T02:19:21;10.65;;;2.53;;
56541;SDS011;42438;53.174;6.730;2023-12-20T02:22:04;10.90;;;2.05;;
56541;SDS011;42438;53.174;6.730;2023-12-20T02:24:38;11.18;;;2.10;;
56541;SDS011;42438;53.174;6.730;2023-12-20T02:27:09;10.38;;;2.28;;
56541;SDS011;42438;53.174;6.730;2023-12-20T02:29:40;9.63;;;2.08;;
56541;SDS011;42438;53.174;6.730;2023-12-20T02:32:10;9.38;;;2.00;;
56541;SDS011;42438;53.174;6.730;2023-12-20T02:34:41;8.70;;;2.22;;
56541;SDS011;42438;53.174;6.730;2023-12-20T02:37:12;9.77;;;2.40;;
56541;SDS011;42438;53.174;6.730;2023-12-20T02:39:42;11.68;;;3.08;;
56541;SDS011;42438;53.174;6.730;2023-12-20T02:42:13;9.40;;;2.40;;
56541;SDS011;42438;53.174;6.730;2023-12-20T02:44:43;12.27;;;2.55;;
56541;SDS011;42438;53.174;6.730;2023-12-20T02:47:14;13.05;;;2.90;;
56541;SDS011;42438;53.174;6.730;2023-12-20T02:49:45;18.58;;;4.85;;
56541;SDS011;42438;53.174;6.730;2023-12-20T02:52:15;15.25;;;3.10;;
56541;SDS011;42438;53.174;6.730;2023-12-20T02:54:46;14.23;;;3.65;;
56541;SDS011;42438;53.174;6.730;2023-12-20T02:57:17;11.02;;;3.58;;
56541;SDS011;42438;53.174;6.730;2023-12-20T02:59:47;16.08;;;2.80;;
56541;SDS011;42438;53.174;6.730;2023-12-20T03:02:18;13.75;;;3.42;;
56541;SDS011;42438;53.174;6.730;2023-12-20T03:04:49;13.52;;;2.63;;
56541;SDS011;42438;53.174;6.730;2023-12-20T03:07:20;17.65;;;3.13;;
56541;SDS011;42438;53.174;6.730;2023-12-20T03:09:51;22.63;;;4.30;;
56541;SDS011;42438;53.174;6.730;2023-12-20T03:12:21;19.20;;;3.70;;
56541;SDS011;42438;53.174;6.730;2023-12-20T03:14:52;15.35;;;3.03;;
56541;SDS011;42438;53.174;6.730;2023-12-20T03:17:22;19.17;;;4.00;;
56541;SDS011;42438;53.174;6.730;2023-12-20T03:19:53;15.07;;;2.80;;
56541;SDS011;42438;53.174;6.730;2023-12-20T03:22:24;18.25;;;3.70;;
56541;SDS011;42438;53.174;6.730;2023-12-20T03:24:54;15.95;;;4.03;;
56541;SDS011;42438;53.174;6.730;2023-12-20T03:27:25;16.40;;;3.60;;
56541;SDS011;42438;53.174;6.730;2023-12-20T03:29:55;15.82;;;3.22;;
56541;SDS011;42438;53.174;6.730;2023-12-20T03:32:26;21.52;;;3.97;;
56541;SDS011;42438;53.174;6.730;2023-12-20T03:34:57;18.38;;;3.70;;
56541;SDS011;42438;53.174;6.730;2023-12-20T03:37:27;16.15;;;4.35;;
56541;SDS011;42438;53.174;6.730;2023-12-20T03:39:58;11.70;;;3.42;;
56541;SDS011;42438;53.174;6.730;2023-12-20T03:42:29;14.23;;;3.83;;
56541;SDS011;42438;53.174;6.730;2023-12-20T03:44:59;21.15;;;3.95;;
56541;SDS011;42438;53.174;6.730;2023-12-20T03:47:30;16.73;;;3.55;;
56541;SDS011;42438;53.174;6.730;2023-12-20T03:50:00;19.80;;;3.80;;
56541;SDS011;42438;53.174;6.730;2023-12-20T03:52:32;11.13;;;3.30;;
56541;SDS011;42438;53.174;6.730;2023-12-20T03:55:03;18.40;;;4.00;;
56541;SDS011;42438;53.174;6.730;2023-12-20T03:57:33;15.52;;;3.42;;
56541;SDS011;42438;53.174;6.730;2023-12-20T04:00:05;16.38;;;3.65;;
56541;SDS011;42438;53.174;6.730;2023-12-20T04:02:40;18.92;;;4.35;;
56541;SDS011;42438;53.174;6.730;2023-12-20T04:05:12;19.95;;;4.45;;
56541;SDS011;42438;53.174;6.730;2023-12-20T04:07:42;16.88;;;4.15;;
56541;SDS011;42438;53.174;6.730;2023-12-20T04:10:13;16.25;;;3.15;;
56541;SDS011;42438;53.174;6.730;2023-12-20T04:12:44;19.90;;;3.92;;
56541;SDS011;42438;53.174;6.730;2023-12-20T04:15:15;18.13;;;4.07;;
56541;SDS011;42438;53.174;6.730;2023-12-20T04:17:45;18.15;;;4.85;;
56541;SDS011;42438;53.174;6.730;2023-12-20T04:20:16;12.75;;;3.58;;
56541;SDS011;42438;53.174;6.730;2023-12-20T04:22:47;16.58;;;3.78;;
56541;SDS011;42438;53.174;6.730;2023-12-20T04:25:17;20.40;;;4.50;;
56541;SDS011;42438;53.174;6.730;2023-12-20T04:27:48;16.08;;;4.30;;
56541;SDS011;42438;53.174;6.730;2023-12-20T04:30:18;17.65;;;4.00;;
56541;SDS011;42438;53.174;6.730;2023-12-20T04:32:49;23.95;;;4.30;;
56541;SDS011;42438;53.174;6.730;2023-12-20T04:35:20;14.05;;;4.20;;
56541;SDS011;42438;53.174;6.730;2023-12-20T04:37:50;21.15;;;4.93;;
56541;SDS011;42438;53.174;6.730;2023-12-20T04:40:21;14.35;;;3.33;;
56541;SDS011;42438;53.174;6.730;2023-12-20T04:42:52;19.13;;;3.85;;
56541;SDS011;42438;53.174;6.730;2023-12-20T04:45:22;19.63;;;3.92;;
56541;SDS011;42438;53.174;6.730;2023-12-20T04:47:55;22.30;;;5.50;;
56541;SDS011;42438;53.174;6.730;2023-12-20T04:50:26;16.20;;;3.47;;
56541;SDS011;42438;53.174;6.730;2023-12-20T04:52:56;17.98;;;3.40;;
56541;SDS011;42438;53.174;6.730;2023-12-20T04:55:27;16.17;;;3.60;;
56541;SDS011;42438;53.174;6.730;2023-12-20T04:57:58;15.20;;;3.28;;
56541;SDS011;42438;53.174;6.730;2023-12-20T05:00:28;17.00;;;3.55;;
56541;SDS011;42438;53.174;6.730;2023-12-20T05:03:00;15.13;;;3.60;;
56541;SDS011;42438;53.174;6.730;2023-12-20T05:05:30;17.05;;;3.70;;
56541;SDS011;42438;53.174;6.730;2023-12-20T05:08:02;21.55;;;3.63;;
56541;SDS011;42438;53.174;6.730;2023-12-20T05:10:32;17.30;;;4.72;;
56541;SDS011;42438;53.174;6.730;2023-12-20T05:13:03;22.60;;;3.72;;
56541;SDS011;42438;53.174;6.730;2023-12-20T05:15:34;16.13;;;4.93;;
56541;SDS011;42438;53.174;6.730;2023-12-20T05:18:04;17.92;;;5.30;;
56541;SDS011;42438;53.174;6.730;2023-12-20T05:20:35;15.82;;;3.47;;
56541;SDS011;42438;53.174;6.730;2023-12-20T05:23:06;20.13;;;4.45;;
56541;SDS011;42438;53.174;6.730;2023-12-20T05:25:36;15.95;;;3.90;;
56541;SDS011;42438;53.174;6.730;2023-12-20T05:28:07;24.75;;;4.80;;
56541;SDS011;42438;53.174;6.730;2023-12-20T05:30:38;18.77;;;4.88;;
56541;SDS011;42438;53.174;6.730;2023-12-20T05:33:09;22.90;;;4.32;;
56541;SDS011;42438;53.174;6.730;2023-12-20T05:35:39;19.33;;;4.95;;
56541;SDS011;42438;53.174;6.730;2023-12-20T05:38:10;15.30;;;3.88;;
56541;SDS011;42438;53.174;6.730;2023-12-20T05:40:40;18.08;;;4.53;;
56541;SDS011;42438;53.174;6.730;2023-12-20T05:43:11;18.10;;;4.57;;
56541;SDS011;42438;53.174;6.730;2023-12-20T05:45:42;17.77;;;4.05;;
56541;SDS011;42438;53.174;6.730;2023-12-20T05:48:12;21.45;;;3.67;;
56541;SDS011;42438;53.174;6.730;2023-12-20T05:50:43;21.88;;;3.72;;
56541;SDS011;42438;53.174;6.730;2023-12-20T05:53:14;20.77;;;4.15;;
56541;SDS011;42438;53.174;6.730;2023-12-20T05:55:44;22.40;;;4.05;;
56541;SDS011;42438;53.174;6.730;2023-12-20T05:58:15;17.98;;;3.28;;
56541;SDS011;42438;53.174;6.730;2023-12-20T06:00:45;15.90;;;3.97;;
56541;SDS011;42438;53.174;6.730;2023-12-20T06:03:16;22.25;;;4.45;;
56541;SDS011;42438;53.174;6.730;2023-12-20T06:05:47;21.83;;;4.07;;
56541;SDS011;42438;53.174;6.730;2023-12-20T06:08:17;15.48;;;3.63;;
56541;SDS011;42438;53.174;6.730;2023-12-20T06:10:48;18.67;;;3.63;;
56541;SDS011;42438;53.174;6.730;2023-12-20T06:13:19;14.18;;;3.58;;
56541;SDS011;42438;53.174;6.730;2023-12-20T06:15:49;14.85;;;3.28;;
56541;SDS011;42438;53.174;6.730;2023-12-20T06:18:21;18.33;;;3.50;;
56541;SDS011;42438;53.174;6.730;2023-12-20T06:20:51;15.55;;;3.40;;
56541;SDS011;42438;53.174;6.730;2023-12-20T06:23:22;25.75;;;4.80;;
56541;SDS011;42438;53.174;6.730;2023-12-20T06:25:52;18.27;;;3.63;;
56541;SDS011;42438;53.174;6.730;2023-12-20T06:28:23;26.73;;;4.00;;
56541;SDS011;42438;53.174;6.730;2023-12-20T06:30:54;20.15;;;4.70;;
56541;SDS011;42438;53.174;6.730;2023-12-20T06:33:25;20.05;;;4.60;;
56541;SDS011;42438;53.174;6.730;2023-12-20T06:35:55;23.70;;;4.70;;
56541;SDS011;42438;53.174;6.730;2023-12-20T06:38:26;19.10;;;3.75;;
56541;SDS011;42438;53.174;6.730;2023-12-20T06:40:57;20.13;;;4.05;;
56541;SDS011;42438;53.174;6.730;2023-12-20T06:43:28;16.65;;;3.50;;
56541;SDS011;42438;53.174;6.730;2023-12-20T06:46:00;21.95;;;4.10;;
56541;SDS011;42438;53.174;6.730;2023-12-20T06:48:31;23.60;;;4.03;;
56541;SDS011;42438;53.174;6.730;2023-12-20T06:51:02;18.05;;;4.85;;
56541;SDS011;42438;53.174;6.730;2023-12-20T06:53:32;14.20;;;3.67;;
56541;SDS011;42438;53.174;6.730;2023-12-20T06:56:03;23.02;;;3.92;;
56541;SDS011;42438;53.174;6.730;2023-12-20T06:58:35;25.55;;;4.00;;
56541;SDS011;42438;53.174;6.730;2023-12-20T07:01:13;17.30;;;4.10;;
56541;SDS011;42438;53.174;6.730;2023-12-20T07:03:44;17.27;;;3.47;;
56541;SDS011;42438;53.174;6.730;2023-12-20T07:06:15;18.20;;;4.85;;
56541;SDS011;42438;53.174;6.730;2023-12-20T07:08:46;21.33;;;5.28;;
56541;SDS011;42438;53.174;6.730;2023-12-20T07:11:17;16.80;;;3.40;;
56541;SDS011;42438;53.174;6.730;2023-12-20T07:13:48;17.23;;;3.38;;
56541;SDS011;42438;53.174;6.730;2023-12-20T07:16:19;17.75;;;3.40;;
56541;SDS011;42438;53.174;6.730;2023-12-20T07:18:51;17.05;;;3.92;;
56541;SDS011;42438;53.174;6.730;2023-12-20T07:21:22;15.73;;;3.97;;
56541;SDS011;42438;53.174;6.730;2023-12-20T07:23:53;17.48;;;3.97;;
56541;SDS011;42438;53.174;6.730;2023-12-20T07:26:24;23.33;;;4.60;;
56541;SDS011;42438;53.174;6.730;2023-12-20T07:28:54;17.98;;;3.90;;
56541;SDS011;42438;53.174;6.730;2023-12-20T07:31:25;14.00;;;3.35;;
56541;SDS011;42438;53.174;6.730;2023-12-20T07:33:55;28.23;;;4.57;;
56541;SDS011;42438;53.174;6.730;2023-12-20T07:36:26;19.17;;;4.97;;
56541;SDS011;42438;53.174;6.730;2023-12-20T07:38:57;25.98;;;4.93;;
56541;SDS011;42438;53.174;6.730;2023-12-20T07:41:27;17.42;;;4.05;;
56541;SDS011;42438;53.174;6.730;2023-12-20T07:43:58;20.42;;;6.32;;
56541;SDS011;42438;53.174;6.730;2023-12-20T07:46:29;19.48;;;3.75;;
56541;SDS011;42438;53.174;6.730;2023-12-20T07:49:00;18.30;;;3.75;;
56541;SDS011;42438;53.174;6.730;2023-12-20T07:51:30;19.15;;;5.03;;
56541;SDS011;42438;53.174;6.730;2023-12-20T07:54:01;19.10;;;5.00;;
56541;SDS011;42438;53.174;6.730;2023-12-20T07:56:33;17.90;;;5.53;;
56541;SDS011;42438;53.174;6.730;2023-12-20T07:59:04;11.90;;;3.55;;
56541;SDS011;42438;53.174;6.730;2023-12-20T08:01:34;15.45;;;3.67;;
56541;SDS011;42438;53.174;6.730;2023-12-20T08:04:05;15.82;;;3.90;;
56541;SDS011;42438;53.174;6.730;2023-12-20T08:06:35;18.30;;;4.07;;
56541;SDS011;42438;53.174;6.730;2023-12-20T08:09:06;17.05;;;4.90;;
56541;SDS011;42438;53.174;6.730;2023-12-20T08:11:37;15.50;;;4.40;;
56541;SDS011;42438;53.174;6.730;2023-12-20T08:14:07;14.20;;;3.65;;
56541;SDS011;42438;53.174;6.730;2023-12-20T08:16:38;20.20;;;5.57;;
56541;SDS011;42438;53.174;6.730;2023-12-20T08:19:09;19.33;;;4.05;;
56541;SDS011;42438;53.174;6.730;2023-12-20T08:21:39;20.48;;;4.45;;
56541;SDS011;42438;53.174;6.730;2023-12-20T08:24:10;15.32;;;3.78;;
56541;SDS011;42438;53.174;6.730;2023-12-20T08:26:40;18.05;;;4.03;;
56541;SDS011;42438;53.174;6.730;2023-12-20T08:29:12;16.88;;;4.18;;
56541;SDS011;42438;53.174;6.730;2023-12-20T08:31:44;18.42;;;3.95;;
56541;SDS011;42438;53.174;6.730;2023-12-20T08:34:14;16.92;;;3.15;;
56541;SDS011;42438;53.174;6.730;2023-12-20T08:36:45;15.98;;;4.05;;
56541;SDS011;42438;53.174;6.730;2023-12-20T08:39:16;15.63;;;3.28;;
56541;SDS011;42438;53.174;6.730;2023-12-20T08:41:47;17.05;;;3.83;;
56541;SDS011;42438;53.174;6.730;2023-12-20T08:44:17;21.05;;;3.70;;
56541;SDS011;42438;53.174;6.730;2023-12-20T08:46:48;12.25;;;3.42;;
56541;SDS011;42438;53.174;6.730;2023-12-20T08:49:19;12.23;;;2.95;;
56541;SDS011;42438;53.174;6.730;2023-12-20T08:51:50;6.60;;;1.63;;
56541;SDS011;42438;53.174;6.730;2023-12-20T08:54:20;2.45;;;0.88;;
56541;SDS011;42438;53.174;6.730;2023-12-20T08:56:51;3.17;;;1.20;;
56541;SDS011;42438;53.174;6.730;2023-12-20T08:59:22;7.65;;;1.10;;
56541;SDS011;42438;53.174;6.730;2023-12-20T09:01:52;2.63;;;0.70;;
56541;SDS011;42438;53.174;6.730;2023-12-20T09:04:24;6.30;;;1.23;;
56541;SDS011;42438;53.174;6.730;2023-12-20T09:06:55;4.32;;;1.20;;
56541;SDS011;42438;53.174;6.730;2023-12-20T09:09:26;2.00;;;0.95;;
56541;SDS011;42438;53.174;6.730;2023-12-20T09:11:56;3.78;;;0.77;;
56541;SDS011;42438;53.174;6.730;2023-12-20T09:14:27;3.47;;;1.13;;
56541;SDS011;42438;53.174;6.730;2023-12-20T09:16:58;4.07;;;0.98;;
56541;SDS011;42438;53.174;6.730;2023-12-20T09:19:31;2.88;;;0.95;;
56541;SDS011;42438;53.174;6.730;2023-12-20T09:22:01;5.70;;;1.30;;
56541;SDS011;42438;53.174;6.730;2023-12-20T09:24:32;5.82;;;1.20;;
56541;SDS011;42438;53.174;6.730;2023-12-20T09:27:03;3.97;;;1.35;;
56541;SDS011;42438;53.174;6.730;2023-12-20T09:29:34;6.47;;;0.98;;
56541;SDS011;42438;53.174;6.730;2023-12-20T09:32:04;7.43;;;1.25;;
56541;SDS011;42438;53.174;6.730;2023-12-20T09:34:35;8.65;;;1.42;;
56541;SDS011;42438;53.174;6.730;2023-12-20T09:37:07;7.75;;;1.27;;
56541;SDS011;42438;53.174;6.730;2023-12-20T09:39:38;6.05;;;1.55;;
56541;SDS011;42438;53.174;6.730;2023-12-20T09:42:08;6.93;;;1.60;;
56541;SDS011;42438;53.174;6.730;2023-12-20T09:44:45;4.90;;;1.38;;
56541;SDS011;42438;53.174;6.730;2023-12-20T09:47:17;4.40;;;1.27;;
56541;SDS011;42438;53.174;6.730;2023-12-20T09:49:52;6.80;;;1.55;;
56541;SDS011;42438;53.174;6.730;2023-12-20T09:52:24;6.00;;;1.33;;
56541;SDS011;42438;53.174;6.730;2023-12-20T09:54:54;6.00;;;1.42;;
56541;SDS011;42438;53.174;6.730;2023-12-20T09:57:27;6.47;;;1.30;;
56541;SDS011;42438;53.174;6.730;2023-12-20T09:59:57;3.58;;;0.95;;
56541;SDS011;42438;53.174;6.730;2023-12-20T10:02:28;8.00;;;1.27;;
56541;SDS011;42438;53.174;6.730;2023-12-20T10:05:02;9.68;;;1.90;;
56541;SDS011;42438;53.174;6.730;2023-12-20T10:07:35;5.22;;;1.60;;
56541;SDS011;42438;53.174;6.730;2023-12-20T10:10:05;5.90;;;1.65;;
56541;SDS011;42438;53.174;6.730;2023-12-20T10:15:09;6.18;;;2.60;;
56541;SDS011;42438;53.174;6.730;2023-12-20T10:17:40;4.80;;;1.50;;
56541;SDS011;42438;53.174;6.730;2023-12-20T10:20:11;4.57;;;1.20;;
56541;SDS011;42438;53.174;6.730;2023-12-20T10:22:41;6.28;;;1.67;;
56541;SDS011;42438;53.174;6.730;2023-12-20T10:25:12;6.68;;;1.77;;
56541;SDS011;42438;53.174;6.730;2023-12-20T10:27:43;10.25;;;1.80;;
56541;SDS011;42438;53.174;6.730;2023-12-20T10:30:13;5.72;;;1.30;;
56541;SDS011;42438;53.174;6.730;2023-12-20T10:32:44;6.55;;;1.58;;
56541;SDS011;42438;53.174;6.730;2023-12-20T10:35:15;9.82;;;1.70;;
56541;SDS011;42438;53.174;6.730;2023-12-20T10:37:46;8.90;;;1.90;;
56541;SDS011;42438;53.174;6.730;2023-12-20T10:40:18;7.75;;;1.90;;
56541;SDS011;42438;53.174;6.730;2023-12-20T10:42:49;6.90;;;2.15;;
56541;SDS011;42438;53.174;6.730;2023-12-20T10:45:21;10.45;;;2.13;;
56541;SDS011;42438;53.174;6.730;2023-12-20T10:47:53;9.07;;;2.10;;
56541;SDS011;42438;53.174;6.730;2023-12-20T10:50:26;13.80;;;2.92;;
56541;SDS011;42438;53.174;6.730;2023-12-20T10:52:58;7.65;;;2.00;;
56541;SDS011;42438;53.174;6.730;2023-12-20T10:55:29;12.38;;;4.07;;
56541;SDS011;42438;53.174;6.730;2023-12-20T10:58:09;10.27;;;3.60;;
56541;SDS011;42438;53.174;6.730;2023-12-20T11:00:40;14.60;;;3.53;;
56541;SDS011;42438;53.174;6.730;2023-12-20T11:03:13;11.57;;;3.60;;
56541;SDS011;42438;53.174;6.730;2023-12-20T11:05:52;10.27;;;3.60;;
56541;SDS011;42438;53.174;6.730;2023-12-20T11:08:28;12.75;;;2.38;;
56541;SDS011;42438;53.174;6.730;2023-12-20T11:11:12;7.45;;;2.47;;
56541;SDS011;42438;53.174;6.730;2023-12-20T11:13:53;8.13;;;2.22;;
56541;SDS011;42438;53.174;6.730;2023-12-20T11:16:32;12.68;;;2.47;;
56541;SDS011;42438;53.174;6.730;2023-12-20T11:19:06;12.45;;;2.60;;
56541;SDS011;42438;53.174;6.730;2023-12-20T11:21:37;8.10;;;1.95;;
56541;SDS011;42438;53.174;6.730;2023-12-20T11:24:09;11.05;;;2.15;;
56541;SDS011;42438;53.174;6.730;2023-12-20T11:26:41;9.18;;;2.17;;
56541;SDS011;42438;53.174;6.730;2023-12-20T11:29:34;11.25;;;2.50;;
56541;SDS011;42438;53.174;6.730;2023-12-20T11:34:58;9.23;;;2.13;;
56541;SDS011;42438;53.174;6.730;2023-12-20T11:37:31;11.23;;;2.22;;
56541;SDS011;42438;53.174;6.730;2023-12-20T11:40:05;11.80;;;3.03;;
56541;SDS011;42438;53.174;6.730;2023-12-20T11:42:39;9.40;;;2.03;;
56541;SDS011;42438;53.174;6.730;2023-12-20T11:45:19;11.75;;;2.65;;
56541;SDS011;42438;53.174;6.730;2023-12-20T11:47:53;5.70;;;2.35;;
56541;SDS011;42438;53.174;6.730;2023-12-20T11:50:24;13.75;;;2.15;;
56541;SDS011;42438;53.174;6.730;2023-12-20T11:52:55;8.45;;;2.42;;
56541;SDS011;42438;53.174;6.730;2023-12-20T11:55:26;8.35;;;1.70;;
56541;SDS011;42438;53.174;6.730;2023-12-20T11:57:57;10.48;;;2.50;;
56541;SDS011;42438;53.174;6.730;2023-12-20T12:00:27;7.68;;;2.45;;
56541;SDS011;42438;53.174;6.730;2023-12-20T12:02:59;11.82;;;1.88;;
56541;SDS011;42438;53.174;6.730;2023-12-20T12:05:31;10.80;;;2.13;;
56541;SDS011;42438;53.174;6.730;2023-12-20T12:08:02;9.10;;;2.00;;
56541;SDS011;42438;53.174;6.730;2023-12-20T12:10:33;11.45;;;2.42;;
56541;SDS011;42438;53.174;6.730;2023-12-20T12:13:04;11.90;;;3.38;;
56541;SDS011;42438;53.174;6.730;2023-12-20T12:15:35;13.15;;;2.85;;
56541;SDS011;42438;53.174;6.730;2023-12-20T12:18:06;8.18;;;2.70;;
56541;SDS011;42438;53.174;6.730;2023-12-20T12:20:37;13.82;;;2.75;;
56541;SDS011;42438;53.174;6.730;2023-12-20T12:23:08;14.20;;;3.65;;
56541;SDS011;42438;53.174;6.730;2023-12-20T12:25:39;10.15;;;3.47;;
56541;SDS011;42438;53.174;6.730;2023-12-20T12:28:11;12.40;;;3.35;;
56541;SDS011;42438;53.174;6.730;2023-12-20T12:30:41;15.07;;;2.92;;
56541;SDS011;42438;53.174;6.730;2023-12-20T12:33:12;8.23;;;2.30;;
56541;SDS011;42438;53.174;6.730;2023-12-20T12:35:43;9.60;;;2.70;;
56541;SDS011;42438;53.174;6.730;2023-12-20T12:38:14;16.13;;;3.53;;
56541;SDS011;42438;53.174;6.730;2023-12-20T12:40:45;12.25;;;2.92;;
56541;SDS011;42438;53.174;6.730;2023-12-20T12:43:16;15.18;;;2.53;;
56541;SDS011;42438;53.174;6.730;2023-12-20T12:45:47;8.40;;;2.47;;
56541;SDS011;42438;53.174;6.730;2023-12-20T12:48:18;9.52;;;2.40;;
56541;SDS011;42438;53.174;6.730;2023-12-20T12:50:49;15.25;;;3.42;;
56541;SDS011;42438;53.174;6.730;2023-12-20T12:53:22;8.00;;;2.40;;
56541;SDS011;42438;53.174;6.730;2023-12-20T12:55:52;12.60;;;2.72;;
56541;SDS011;42438;53.174;6.730;2023-12-20T12:58:24;26.95;;;3.50;;
56541;SDS011;42438;53.174;6.730;2023-12-20T13:00:56;16.45;;;3.17;;
56541;SDS011;42438;53.174;6.730;2023-12-20T13:03:26;29.90;;;3.90;;
56541;SDS011;42438;53.174;6.730;2023-12-20T13:05:57;13.45;;;2.33;;
56541;SDS011;42438;53.174;6.730;2023-12-20T13:08:28;20.75;;;3.28;;
56541;SDS011;42438;53.174;6.730;2023-12-20T13:10:59;9.27;;;2.40;;
56541;SDS011;42438;53.174;6.730;2023-12-20T13:13:31;10.95;;;2.30;;
56541;SDS011;42438;53.174;6.730;2023-12-20T13:16:01;6.80;;;1.95;;
56541;SDS011;42438;53.174;6.730;2023-12-20T13:18:32;8.82;;;1.92;;
56541;SDS011;42438;53.174;6.730;2023-12-20T13:21:03;12.10;;;2.40;;
56541;SDS011;42438;53.174;6.730;2023-12-20T13:23:34;10.40;;;1.98;;
56541;SDS011;42438;53.174;6.730;2023-12-20T13:26:04;19.77;;;3.63;;
56541;SDS011;42438;53.174;6.730;2023-12-20T13:28:35;10.90;;;2.13;;
56541;SDS011;42438;53.174;6.730;2023-12-20T13:31:06;13.25;;;2.13;;
56541;SDS011;42438;53.174;6.730;2023-12-20T13:33:37;10.18;;;2.20;;
56541;SDS011;42438;53.174;6.730;2023-12-20T13:36:08;7.70;;;3.00;;
56541;SDS011;42438;53.174;6.730;2023-12-20T13:38:38;8.45;;;2.50;;
56541;SDS011;42438;53.174;6.730;2023-12-20T13:41:09;12.07;;;2.58;;
56541;SDS011;42438;53.174;6.730;2023-12-20T13:43:40;10.57;;;2.17;;
56541;SDS011;42438;53.174;6.730;2023-12-20T13:46:10;8.43;;;2.05;;
56541;SDS011;42438;53.174;6.730;2023-12-20T13:48:41;9.70;;;1.90;;
56541;SDS011;42438;53.174;6.730;2023-12-20T13:51:12;8.07;;;1.83;;
56541;SDS011;42438;53.174;6.730;2023-12-20T13:53:42;12.45;;;2.10;;
56541;SDS011;42438;53.174;6.730;2023-12-20T13:56:13;10.70;;;2.10;;
56541;SDS011;42438;53.174;6.730;2023-12-20T13:58:48;5.63;;;1.50;;
56541;SDS011;42438;53.174;6.730;2023-12-20T14:01:19;9.43;;;1.90;;
56541;SDS011;42438;53.174;6.730;2023-12-20T14:03:50;6.63;;;3.33;;
56541;SDS011;42438;53.174;6.730;2023-12-20T14:06:20;7.60;;;1.83;;
56541;SDS011;42438;53.174;6.730;2023-12-20T14:08:51;8.45;;;1.60;;
56541;SDS011;42438;53.174;6.730;2023-12-20T14:11:22;8.55;;;2.40;;
56541;SDS011;42438;53.174;6.730;2023-12-20T14:13:52;6.72;;;1.52;;
56541;SDS011;42438;53.174;6.730;2023-12-20T14:16:27;7.22;;;1.80;;
56541;SDS011;42438;53.174;6.730;2023-12-20T14:18:58;5.55;;;1.50;;
56541;SDS011;42438;53.174;6.730;2023-12-20T14:21:28;10.35;;;1.70;;
56541;SDS011;42438;53.174;6.730;2023-12-20T14:23:59;6.00;;;1.60;;
56541;SDS011;42438;53.174;6.730;2023-12-20T14:26:30;9.48;;;1.48;;
56541;SDS011;42438;53.174;6.730;2023-12-20T14:29:01;10.25;;;1.40;;
56541;SDS011;42438;53.174;6.730;2023-12-20T14:31:34;4.18;;;1.63;;
56541;SDS011;42438;53.174;6.730;2023-12-20T14:34:05;5.03;;;1.70;;
56541;SDS011;42438;53.174;6.730;2023-12-20T14:36:37;6.18;;;1.98;;
56541;SDS011;42438;53.174;6.730;2023-12-20T14:39:08;8.02;;;1.75;;
56541;SDS011;42438;53.174;6.730;2023-12-20T14:41:38;8.60;;;1.67;;
56541;SDS011;42438;53.174;6.730;2023-12-20T14:46:42;5.20;;;1.92;;
56541;SDS011;42438;53.174;6.730;2023-12-20T14:49:13;7.28;;;1.75;;
56541;SDS011;42438;53.174;6.730;2023-12-20T14:51:44;3.13;;;1.10;;
56541;SDS011;42438;53.174;6.730;2023-12-20T14:54:15;4.65;;;1.45;;
56541;SDS011;42438;53.174;6.730;2023-12-20T14:56:45;9.93;;;2.08;;
56541;SDS011;42438;53.174;6.730;2023-12-20T14:59:17;7.72;;;1.90;;
56541;SDS011;42438;53.174;6.730;2023-12-20T15:01:47;6.50;;;2.28;;
56541;SDS011;42438;53.174;6.730;2023-12-20T15:04:18;5.13;;;1.50;;
56541;SDS011;42438;53.174;6.730;2023-12-20T15:06:49;6.75;;;1.50;;
56541;SDS011;42438;53.174;6.730;2023-12-20T15:09:20;6.88;;;1.42;;